Machigasta, Argentina
Current Conditions -  °F | °C
As of 7:00 PM on Wednesday 22 Oct 2014 (Local Time) from SANT Reporting Station
Scattered Clouds Scattered Clouds  
Wind Chill: 93°   Ceiling: Unl
Heat Index: 93°   Visibility: 5mi
Dew Point: 57°   Wind: 24mph
Humidity: 30%   Direction: 50°NE
Pressure: 29.83"   Gusts: 28mph
Location:  28.55°S, 66.8°W
Report Text: SANT 222200Z 05021G24KT 8000 SCT045 FEW100FEW200 34/14 Q1010
Loading
Personal Weather Stations






























Interactive Weather Map New forecast layout! Learn more

10-Day Weather Forecast

Advertisements
Track Severe Weather on mobile